Terminal Aerodrome Forecast
Issued by NWS

Home | Current Version | Previous Version | Text Only | Print | Product List | Glossary On
Versions: 1 2 3 4 5 6 7 8 9 10 11 12 13
000
FTUS46 KMFR 040114 AAA
TAFRBG
TAF AMD
KRBG 040114Z 0401/0424 30009G15KT P6SM SKC
     FM040400 00000KT P6SM SKC
     FM042200 35006KT P6SM SKC=

USA.gov is the U.S. government's official web portal to all federal, state and local government web resources and services.